TimePDT,TemperatureF,Dew PointF,Humidity,Sea Level PressureIn,VisibilityMPH,Wind Direction,Wind SpeedMPH,Gust SpeedMPH,PrecipitationIn,Events,Conditions,WindDirDegrees,DateUTC
12:15 AM,44.6,44.6,100,30.33,10.0,East,5.8,-,N/A,,Clear,80,2011-10-17 07:15:00
12:55 AM,44.6,42.8,93,30.32,10.0,ENE,3.5,-,N/A,,Clear,70,2011-10-17 07:55:00
1:15 AM,44.6,44.6,100,30.33,10.0,East,4.6,-,N/A,,Clear,80,2011-10-17 08:15:00
1:35 AM,44.6,44.6,100,30.34,10.0,ENE,4.6,-,N/A,,Clear,70,2011-10-17 08:35:00
1:55 AM,44.6,42.8,93,30.33,10.0,ENE,8.1,-,N/A,,Clear,60,2011-10-17 08:55:00
2:15 AM,44.6,42.8,93,30.34,10.0,Calm,Calm,-,N/A,,Clear,0,2011-10-17 09:15:00
2:35 AM,42.8,42.8,100,30.35,7.0,Calm,Calm,-,N/A,,Clear,0,2011-10-17 09:35:00
3:15 AM,42.8,42.8,100,30.34,7.0,Calm,Calm,-,N/A,,Clear,0,2011-10-17 10:15:00
3:35 AM,44.6,42.8,93,30.34,10.0,NE,6.9,-,N/A,,Clear,40,2011-10-17 10:35:00
3:55 AM,44.6,44.6,100,30.34,10.0,NE,4.6,-,N/A,,Clear,40,2011-10-17 10:55:00
4:15 AM,42.8,42.8,100,30.34,10.0,ENE,3.5,-,N/A,,Clear,70,2011-10-17 11:15:00
4:35 AM,44.6,44.6,100,30.34,10.0,East,5.8,-,N/A,,Clear,80,2011-10-17 11:35:00
4:55 AM,44.6,44.6,100,30.34,7.0,East,8.1,-,N/A,,Clear,80,2011-10-17 11:55:00
5:15 AM,44.6,44.6,100,30.34,5.0,East,5.8,-,N/A,,Clear,80,2011-10-17 12:15:00
5:35 AM,44.6,44.6,100,30.33,7.0,ENE,9.2,-,N/A,,Clear,70,2011-10-17 12:35:00
5:55 AM,46.4,44.6,93,30.34,10.0,ENE,9.2,-,N/A,,Clear,70,2011-10-17 12:55:00
6:15 AM,46.4,46.4,100,30.35,7.0,ENE,8.1,-,N/A,,Clear,70,2011-10-17 13:15:00
6:35 AM,44.6,44.6,100,30.35,7.0,ENE,8.1,-,N/A,,Clear,60,2011-10-17 13:35:00
6:55 AM,44.6,42.8,93,30.34,7.0,NE,8.1,-,N/A,,Clear,50,2011-10-17 13:55:00
7:15 AM,44.6,44.6,100,30.35,5.0,NE,10.4,-,N/A,,Clear,50,2011-10-17 14:15:00
7:35 AM,46.4,44.6,93,30.35,7.0,East,8.1,-,N/A,,Clear,80,2011-10-17 14:35:00
7:55 AM,46.4,44.6,93,30.34,7.0,East,10.4,-,N/A,,Clear,80,2011-10-17 14:55:00
8:15 AM,46.4,46.4,100,30.34,10.0,ENE,11.5,-,N/A,,Clear,60,2011-10-17 15:15:00
8:35 AM,50.0,46.4,87,30.34,10.0,East,9.2,-,N/A,,Clear,90,2011-10-17 15:35:00
8:55 AM,50.0,46.4,87,30.35,10.0,NE,10.4,-,N/A,,Clear,50,2011-10-17 15:55:00
9:15 AM,51.8,46.4,82,30.35,-9999.0,ENE,12.7,17.3,N/A,,Unknown,70,2011-10-17 16:15:00
9:35 AM,53.6,46.4,77,30.34,-9999.0,East,11.5,-,N/A,,Clear,80,2011-10-17 16:35:00
9:55 AM,53.6,48.2,82,30.35,-9999.0,ENE,10.4,-,N/A,,Clear,70,2011-10-17 16:55:00
10:15 AM,55.4,48.2,77,30.35,-9999.0,East,13.8,-,N/A,,Clear,80,2011-10-17 17:15:00
10:35 AM,57.2,48.2,72,30.35,10.0,East,10.4,-,N/A,,Clear,80,2011-10-17 17:35:00
10:55 AM,59.0,48.2,67,30.34,10.0,ENE,9.2,-,N/A,,Clear,70,2011-10-17 17:55:00
11:15 AM,60.8,48.2,63,30.34,10.0,ENE,6.9,-,N/A,,Clear,70,2011-10-17 18:15:00
11:35 AM,60.8,46.4,59,30.33,10.0,ENE,6.9,17.3,N/A,,Clear,70,2011-10-17 18:35:00
11:55 AM,62.6,46.4,55,30.33,10.0,ENE,10.4,-,N/A,,Clear,60,2011-10-17 18:55:00
12:15 PM,62.6,46.4,55,30.32,10.0,NE,9.2,-,N/A,,Clear,50,2011-10-17 19:15:00
12:35 PM,64.4,44.6,49,30.32,10.0,NE,9.2,-,N/A,,Clear,50,2011-10-17 19:35:00
12:55 PM,64.4,44.6,49,30.31,10.0,NE,8.1,-,N/A,,Clear,50,2011-10-17 19:55:00
1:15 PM,66.2,44.6,46,30.29,10.0,NE,10.4,-,N/A,,Clear,40,2011-10-17 20:15:00
1:35 PM,68.0,44.6,43,30.28,10.0,NNE,8.1,-,N/A,,Clear,30,2011-10-17 20:35:00
1:55 PM,64.4,51.8,64,30.27,10.0,NNW,9.2,-,N/A,,Clear,340,2011-10-17 20:55:00
2:35 PM,62.6,51.8,68,30.25,7.0,NNW,11.5,-,N/A,,Clear,330,2011-10-17 21:35:00
2:55 PM,62.6,51.8,68,30.25,7.0,NNW,10.4,-,N/A,,Clear,330,2011-10-17 21:55:00
3:15 PM,62.6,51.8,68,30.25,10.0,NNW,10.4,-,N/A,,Clear,330,2011-10-17 22:15:00
3:35 PM,62.6,51.8,68,30.24,10.0,NNW,11.5,-,N/A,,Clear,340,2011-10-17 22:35:00
3:55 PM,62.6,51.8,68,30.24,10.0,NNW,9.2,-,N/A,,Clear,340,2011-10-17 22:55:00
4:15 PM,60.8,51.8,72,30.24,7.0,NNW,10.4,-,N/A,,Clear,340,2011-10-17 23:15:00
4:35 PM,60.8,51.8,72,30.23,7.0,North,9.2,-,N/A,,Clear,350,2011-10-17 23:35:00
4:55 PM,59.0,51.8,77,30.23,7.0,NNW,10.4,-,N/A,,Clear,340,2011-10-17 23:55:00
5:15 PM,59.0,51.8,77,30.23,7.0,NNW,11.5,-,N/A,,Clear,340,2011-10-18 00:15:00
5:35 PM,59.0,51.8,77,30.22,7.0,North,8.1,-,N/A,,Clear,350,2011-10-18 00:35:00
5:55 PM,59.0,51.8,77,30.21,5.0,North,5.8,-,N/A,,Haze,360,2011-10-18 00:55:00
6:15 PM,55.4,51.8,88,30.21,4.0,North,5.8,-,N/A,,Haze,350,2011-10-18 01:15:00
6:35 PM,53.6,50.0,88,30.21,4.0,North,3.5,-,N/A,,Clear,360,2011-10-18 01:35:00
6:55 PM,53.6,51.8,94,30.20,5.0,North,4.6,-,N/A,,Clear,10,2011-10-18 01:55:00
7:15 PM,53.6,50.0,88,30.20,5.0,Calm,Calm,-,N/A,,Clear,0,2011-10-18 02:15:00
7:35 PM,51.8,50.0,94,30.20,5.0,North,5.8,-,N/A,,Clear,360,2011-10-18 02:35:00
7:55 PM,53.6,51.8,94,30.20,5.0,North,4.6,-,N/A,,Clear,10,2011-10-18 02:55:00
8:15 PM,53.6,50.0,88,30.20,7.0,NNE,4.6,-,N/A,,Clear,20,2011-10-18 03:15:00
8:35 PM,51.8,46.4,82,30.19,10.0,NE,5.8,-,N/A,,Clear,40,2011-10-18 03:35:00
8:55 PM,51.8,46.4,82,30.19,10.0,ENE,6.9,-,N/A,,Clear,60,2011-10-18 03:55:00
9:15 PM,53.6,42.8,67,30.19,10.0,ENE,6.9,-,N/A,,Clear,70,2011-10-18 04:15:00
9:35 PM,55.4,42.8,63,30.18,10.0,ENE,10.4,-,N/A,,Clear,70,2011-10-18 04:35:00
9:55 PM,55.4,42.8,63,30.18,10.0,ENE,10.4,-,N/A,,Clear,70,2011-10-18 04:55:00
10:15 PM,57.2,42.8,59,30.18,10.0,East,10.4,-,N/A,,Clear,80,2011-10-18 05:15:00
10:35 PM,57.2,42.8,59,30.17,10.0,ENE,8.1,-,N/A,,Clear,70,2011-10-18 05:35:00
10:55 PM,55.4,42.8,63,30.17,10.0,ENE,8.1,-,N/A,,Clear,70,2011-10-18 05:55:00
11:15 PM,53.6,42.8,67,30.16,10.0,NE,9.2,-,N/A,,Clear,50,2011-10-18 06:15:00
11:35 PM,53.6,42.8,67,30.16,10.0,NE,9.2,-,N/A,,Clear,50,2011-10-18 06:35:00
11:55 PM,53.6,42.8,67,30.16,10.0,Calm,Calm,-,N/A,,Clear,0,2011-10-18 06:55:00